Etusivu
METAR-TAF:

METAR-TAF

Lentoasemat :

Lossiemouth, Skotlanti

Leveyspiiri: 57-43N, Pituuspiiri: 003-19W, korkeus merenpinnasta: 13 m

Tämänhetkinen sää

Tämä raportti tehtiin 41 minuuttia sitten, kello 18.50 UTC
Tuuli 8 kn idästä/koillisesta
Lämpötila 15°C
Kosteus 82%
Ilmanpaine 1011 hPa
Näkyvyys 10 km tai enemmän
Muutamia pilviä 2000 ft:n korkeudessa
Hajonneita pilviä 14000 ft:n korkeudessa
sadekuuroja näköpiirissä

METAR: EGQS 221850Z 07008KT 9999 VCSH FEW020 BKN140 15/12 Q1011 RMK BLU

Aika: 20:31 (19:31 UTC)

Sääennuste

Tämä raportti tehtiin 2 tuntia ja 49 minuuttia sitten, kello 16.42 UTC
Ennuste voimassa 22. päivästä klo 18 UTC - 23. päivään klo 12 UTC
Tuuli 5 kn idästä
Näkyvyys 10 km tai enemmän
Muutamia pilviä 2000 ft:n korkeudessa
Todennäköisyys 30% :
Ajoittain
22. päivästä klo 23 UTC - 23. päivään klo 10 UTC
Hajanaisia pilviä 1000 ft:n korkeudessa

TAF: EGQS 221642Z 2218/2312 08005KT 9999 FEW020 PROB30 TEMPO 2223/2310 SCT010

Säähavainnot ja -ennusteet yli 4000 lentoasemalta (METAR- ja TAF-raportit).

Käytössä olevat sääasemat on merkitty karttaan keltaisilla ja punaisilla pisteillä.

Aseta hiiri pisteen päälle nähdäksesi sääaseman nimen.

Klikkaa sitten nähdäksesi säähavainnot ja -ennusteet.

Kartan vaihtaminen: klikkaa mustalla rastilla varustettuja vihreitä pisteitä, niin voit zoomata sisään; viivalla varustettua vihreää pistettä, niin voit zoomata ulos tai vihreitä nuolia, niin pääset viereisille kartoille.


METAR-TAF: